Time;durP1;ratioP1;P1;durP2;ratioP2;P2;SDS_P1;SDS_P2;PMS_P1;PMS_P2;Temp;Humidity;BMP_temperature;BMP_pressure;BME280_temperature;BME280_humidity;BME280_pressure;Samples;Min_cycle;Max_cycle;Signal;HPM_P1;HPM_P2
2024/02/13 00:01:41;;;;;;;12.20;7.80;;;;;;;4.31;100.00;100564.97;5091657;28;20036;-70
2024/02/13 00:04:10;;;;;;;12.52;7.90;;;;;;;4.30;100.00;100568.00;5080431;28;20524;-70
2024/02/13 00:06:38;;;;;;;13.85;7.38;;;;;;;4.25;100.00;100569.56;5034652;28;20024;-69
2024/02/13 00:09:07;;;;;;;13.32;7.93;;;;;;;4.25;100.00;100566.81;5046828;28;20032;-70
2024/02/13 00:11:32;;;;;;;10.85;7.20;;;;;;;4.20;100.00;100569.50;5050304;28;20050;-69
2024/02/13 00:13:58;;;;;;;11.27;6.97;;;;;;;4.18;100.00;100574.44;5064231;28;20024;-69
2024/02/13 00:16:24;;;;;;;10.23;7.05;;;;;;;4.12;100.00;100572.66;5066994;28;20027;-69
2024/02/13 00:18:50;;;;;;;13.35;7.63;;;;;;;4.10;100.00;100569.34;5047370;28;20048;-70
2024/02/13 00:21:16;;;;;;;13.23;7.63;;;;;;;4.12;100.00;100569.06;5057037;28;20040;-69
2024/02/13 00:23:41;;;;;;;11.65;7.22;;;;;;;4.06;100.00;100565.41;5059938;28;20440;-70
2024/02/13 00:26:09;;;;;;;10.98;7.20;;;;;;;4.04;100.00;100567.59;5079926;28;20035;-70
2024/02/13 00:28:37;;;;;;;12.07;7.00;;;;;;;4.03;100.00;100569.50;5081040;28;20024;-69
2024/02/13 00:31:04;;;;;;;9.40;6.95;;;;;;;4.04;100.00;100570.34;5035964;28;20077;-69
2024/02/13 00:33:30;;;;;;;10.98;6.93;;;;;;;4.02;100.00;100570.56;5086414;28;20036;-69
2024/02/13 00:35:56;;;;;;;11.98;6.63;;;;;;;3.99;100.00;100570.25;5054625;28;20396;-70
2024/02/13 00:38:22;;;;;;;11.25;6.78;;;;;;;4.03;100.00;100560.41;5048150;28;20024;-70
2024/02/13 00:40:48;;;;;;;11.75;6.35;;;;;;;4.05;100.00;100560.19;5064829;28;20557;-70
2024/02/13 00:43:19;;;;;;;12.18;6.72;;;;;;;4.05;100.00;100557.44;5071615;28;20081;-70
2024/02/13 00:45:46;;;;;;;12.82;6.50;;;;;;;4.02;100.00;100550.50;5058227;28;20524;-70
2024/02/13 00:48:12;;;;;;;10.93;6.60;;;;;;;4.07;100.00;100558.00;5079513;28;20036;-70
2024/02/13 00:50:38;;;;;;;10.60;6.75;;;;;;;4.05;100.00;100558.25;5062858;28;20050;-70
2024/02/13 00:53:05;;;;;;;10.27;6.93;;;;;;;4.04;100.00;100553.84;5047472;28;20028;-70
2024/02/13 00:55:31;;;;;;;11.75;6.20;;;;;;;4.05;100.00;100552.75;5082593;28;20077;-69
2024/02/13 00:57:57;;;;;;;10.90;6.25;;;;;;;4.03;100.00;100552.16;5064797;28;20028;-69
2024/02/13 01:00:24;;;;;;;10.50;6.18;;;;;;;4.03;100.00;100554.91;5057137;28;20028;-70
2024/02/13 01:02:50;;;;;;;8.93;5.82;;;;;;;4.05;100.00;100555.50;5079193;28;20028;-70
2024/02/13 01:05:16;;;;;;;10.63;6.03;;;;;;;4.07;100.00;100558.00;5056682;28;20540;-69
2024/02/13 01:07:42;;;;;;;10.93;6.32;;;;;;;4.09;100.00;100551.16;5077816;28;20088;-70
2024/02/13 01:10:08;;;;;;;10.35;6.35;;;;;;;4.10;100.00;100546.53;5048305;28;20028;-70
2024/02/13 01:12:34;;;;;;;10.63;6.10;;;;;;;4.09;100.00;100550.34;5074131;28;20107;-70
2024/02/13 01:14:59;;;;;;;9.68;5.93;;;;;;;4.11;100.00;100543.50;5064866;28;20032;-69
2024/02/13 01:17:28;;;;;;;9.07;5.47;;;;;;;4.14;100.00;100543.00;5067926;28;20093;-70
2024/02/13 01:19:53;;;;;;;9.73;5.60;;;;;;;4.13;100.00;100533.09;5079547;28;20106;-70
2024/02/13 01:22:19;;;;;;;10.75;5.80;;;;;;;4.13;100.00;100527.59;5091252;28;20090;-69
2024/02/13 01:24:44;;;;;;;9.23;5.97;;;;;;;4.15;100.00;100539.19;5080532;28;20133;-70
2024/02/13 01:27:10;;;;;;;10.43;5.70;;;;;;;4.14;100.00;100540.25;5070835;28;20028;-70
2024/02/13 01:29:36;;;;;;;9.20;5.97;;;;;;;4.14;100.00;100540.25;5087779;28;20450;-70
2024/02/13 01:32:03;;;;;;;8.10;5.80;;;;;;;4.17;100.00;100550.75;5071119;28;20028;-70
2024/02/13 01:34:30;;;;;;;7.85;5.10;;;;;;;4.16;100.00;100546.34;5058688;28;20033;-69
2024/02/13 01:36:57;;;;;;;13.20;6.00;;;;;;;4.15;100.00;100541.94;5066707;28;20025;-69
2024/02/13 01:39:24;;;;;;;10.43;5.88;;;;;;;4.20;100.00;100541.16;5045666;28;20020;-70
2024/02/13 01:41:50;;;;;;;9.68;5.78;;;;;;;4.22;100.00;100548.09;5069960;28;20110;-70
2024/02/13 01:44:15;;;;;;;9.35;5.07;;;;;;;4.23;100.00;100546.16;5078342;28;20035;-70
2024/02/13 01:46:40;;;;;;;8.68;5.57;;;;;;;4.28;100.00;100535.25;5048152;28;20020;-70
2024/02/13 01:49:07;;;;;;;9.55;5.40;;;;;;;4.31;100.00;100544.91;5064111;28;20032;-70
2024/02/13 01:51:35;;;;;;;10.30;5.57;;;;;;;4.32;100.00;100533.69;5080580;28;20046;-70
2024/02/13 01:54:02;;;;;;;8.65;5.53;;;;;;;4.35;100.00;100527.66;5060935;28;20028;-70
2024/02/13 01:56:29;;;;;;;9.73;5.10;;;;;;;4.40;100.00;100522.25;5058323;28;20056;-69
2024/02/13 01:58:55;;;;;;;9.02;5.70;;;;;;;4.39;100.00;100539.00;5069662;28;20111;-70
2024/02/13 02:01:21;;;;;;;9.15;5.35;;;;;;;4.38;100.00;100542.84;5049468;28;20032;-70
2024/02/13 02:03:47;;;;;;;11.13;5.82;;;;;;;4.43;100.00;100545.63;5058384;28;20040;-70
2024/02/13 02:06:13;;;;;;;11.55;5.95;;;;;;;4.45;100.00;100551.72;5036151;28;20025;-70
2024/02/13 02:08:39;;;;;;;9.20;5.20;;;;;;;4.46;100.00;100545.97;5061261;28;20061;-69
2024/02/13 02:11:05;;;;;;;9.95;5.28;;;;;;;4.47;100.00;100541.31;5066738;28;20039;-70
2024/02/13 02:13:30;;;;;;;8.95;5.32;;;;;;;4.51;100.00;100536.94;5069579;28;20028;-69
2024/02/13 02:15:57;;;;;;;10.07;4.90;;;;;;;4.52;100.00;100543.31;5073030;28;20519;-69
2024/02/13 02:18:24;;;;;;;8.63;5.07;;;;;;;4.54;100.00;100547.47;5062332;28;20500;-70
2024/02/13 02:20:49;;;;;;;8.90;4.80;;;;;;;4.58;100.00;100532.13;5057156;28;20031;-69
2024/02/13 02:23:19;;;;;;;7.95;5.00;;;;;;;4.59;100.00;100538.44;5086642;28;20043;-69
2024/02/13 02:25:45;;;;;;;8.60;4.80;;;;;;;4.61;100.00;100536.28;5055298;28;20031;-70
2024/02/13 02:28:11;;;;;;;10.82;4.68;;;;;;;4.65;100.00;100537.41;5060976;28;20031;-70
2024/02/13 02:30:37;;;;;;;7.65;4.90;;;;;;;4.67;100.00;100543.50;5075130;28;20400;-70
2024/02/13 02:33:02;;;;;;;7.82;4.95;;;;;;;4.69;100.00;100536.66;5068422;28;20059;-69
2024/02/13 02:35:28;;;;;;;10.48;4.80;;;;;;;4.74;100.00;100538.66;5071852;28;20450;-70
2024/02/13 02:37:53;;;;;;;7.88;4.65;;;;;;;4.73;100.00;100544.41;5060746;28;20035;-70
2024/02/13 02:40:19;;;;;;;10.43;5.55;;;;;;;4.74;100.00;100535.09;5064586;28;20496;-70
2024/02/13 02:42:49;;;;;;;7.80;4.47;;;;;;;4.77;100.00;100535.41;5061094;28;20032;-69
2024/02/13 02:45:17;;;;;;;10.20;4.70;;;;;;;4.78;100.00;100527.97;5045995;28;20031;-70
2024/02/13 02:47:42;;;;;;;7.93;4.25;;;;;;;4.80;100.00;100539.56;5069453;28;20040;-70
2024/02/13 02:50:10;;;;;;;7.95;4.78;;;;;;;4.82;100.00;100529.13;5063754;28;20060;-70
2024/02/13 02:52:37;;;;;;;7.88;5.03;;;;;;;4.85;100.00;100525.88;5060189;28;20459;-69
2024/02/13 02:55:04;;;;;;;7.78;4.30;;;;;;;4.82;100.00;100532.72;5047939;28;20050;-70
2024/02/13 02:57:29;;;;;;;7.15;4.03;;;;;;;4.89;100.00;100535.28;5030982;28;20110;-70
2024/02/13 02:59:55;;;;;;;8.20;4.32;;;;;;;4.87;100.00;100524.50;5034186;28;20031;-70
2024/02/13 03:02:20;;;;;;;7.03;4.05;;;;;;;4.90;100.00;100528.66;5068829;28;20073;-70
2024/02/13 03:04:47;;;;;;;8.40;4.15;;;;;;;4.92;100.00;100527.31;5061002;28;20384;-70
2024/02/13 03:07:12;;;;;;;8.82;3.92;;;;;;;4.93;100.00;100517.16;5043698;28;20031;-70
2024/02/13 03:09:37;;;;;;;5.85;4.00;;;;;;;4.98;100.00;100522.72;5084460;28;20024;-70
2024/02/13 03:12:03;;;;;;;5.57;4.03;;;;;;;4.95;100.00;100514.97;5077293;28;20032;-70
2024/02/13 03:14:29;;;;;;;8.23;4.55;;;;;;;4.97;100.00;100517.50;5064315;28;20106;-70
2024/02/13 03:16:54;;;;;;;6.95;4.00;;;;;;;5.03;100.00;100527.47;5069105;28;20029;-70
2024/02/13 03:19:20;;;;;;;6.55;3.78;;;;;;;5.03;100.00;100528.28;5072571;28;20432;-70
2024/02/13 03:21:45;;;;;;;6.78;4.43;;;;;;;5.06;100.00;100516.75;5044410;28;20036;-70
2024/02/13 03:24:10;;;;;;;6.35;3.75;;;;;;;5.08;100.00;100519.28;5081942;28;20024;-70
2024/02/13 03:26:36;;;;;;;4.93;3.30;;;;;;;5.09;100.00;100516.25;5076592;28;20061;-70
2024/02/13 03:29:02;;;;;;;6.78;3.75;;;;;;;5.09;100.00;100518.16;5071595;28;20028;-70
2024/02/13 03:31:28;;;;;;;5.70;3.05;;;;;;;5.09;100.00;100513.50;5083175;28;20024;-69
2024/02/13 03:33:53;;;;;;;7.63;3.25;;;;;;;5.09;100.00;100507.97;5083954;28;20024;-69
2024/02/13 03:36:19;;;;;;;9.73;3.13;;;;;;;5.09;100.00;100496.97;5060243;28;20024;-69
2024/02/13 03:38:48;;;;;;;7.57;3.25;;;;;;;5.13;100.00;100498.13;5047401;28;20395;-70
2024/02/13 03:41:13;;;;;;;9.05;3.53;;;;;;;5.12;100.00;100493.69;5059542;28;20038;-70
2024/02/13 03:43:43;;;;;;;9.32;3.42;;;;;;;5.14;100.00;100496.22;5064562;28;20036;-69
2024/02/13 03:46:09;;;;;;;5.82;3.05;;;;;;;5.14;100.00;100496.22;5064668;28;20073;-70
2024/02/13 03:48:35;;;;;;;5.32;3.63;;;;;;;5.17;100.00;100498.44;5087720;28;20071;-69
2024/02/13 03:51:00;;;;;;;4.65;3.00;;;;;;;5.16;100.00;100488.53;5072075;28;20032;-70
2024/02/13 03:53:26;;;;;;;5.90;3.28;;;;;;;5.18;100.00;100489.09;5073057;28;20445;-70
2024/02/13 03:55:51;;;;;;;5.85;3.00;;;;;;;5.20;100.00;100488.84;5080666;28;20081;-70
2024/02/13 03:58:17;;;;;;;6.30;2.85;;;;;;;5.22;100.00;100481.97;5067420;28;20473;-70
2024/02/13 04:00:42;;;;;;;5.28;2.80;;;;;;;5.23;100.00;100491.06;5063739;28;20361;-70
2024/02/13 04:03:09;;;;;;;6.90;3.05;;;;;;;5.26;100.00;100479.53;5098649;28;20035;-70
2024/02/13 04:05:37;;;;;;;5.25;2.78;;;;;;;5.24;100.00;100482.56;5063961;28;20063;-70
2024/02/13 04:08:06;;;;;;;8.05;3.38;;;;;;;5.25;100.00;100469.63;5066591;28;20505;-69
2024/02/13 04:10:32;;;;;;;6.45;2.97;;;;;;;5.26;100.00;100471.28;5063710;28;20046;-70
2024/02/13 04:12:57;;;;;;;6.65;2.60;;;;;;;5.26;100.00;100474.84;5069571;28;20541;-69
2024/02/13 04:15:23;;;;;;;8.88;3.22;;;;;;;5.26;100.00;100468.53;5071887;28;20024;-70
2024/02/13 04:17:48;;;;;;;7.85;2.53;;;;;;;5.25;100.00;100473.19;5069288;28;20021;-70
2024/02/13 04:20:14;;;;;;;5.50;3.33;;;;;;;5.25;100.00;100464.94;5039735;28;20020;-69
2024/02/13 04:22:40;;;;;;;6.63;2.47;;;;;;;5.23;100.00;100464.34;5074108;28;20039;-70
2024/02/13 04:25:06;;;;;;;6.28;2.25;;;;;;;5.26;100.00;100465.75;5063394;28;20028;-70
2024/02/13 04:27:31;;;;;;;7.10;3.17;;;;;;;5.25;100.00;100461.38;5050308;28;20048;-70
2024/02/13 04:29:57;;;;;;;8.35;2.92;;;;;;;5.27;100.00;100464.69;5070056;28;20032;-69
2024/02/13 04:32:23;;;;;;;7.85;2.90;;;;;;;5.27;100.00;100464.69;5084943;28;20028;-70
2024/02/13 04:34:48;;;;;;;7.65;2.72;;;;;;;5.24;100.00;100463.28;5046705;28;20111;-69
2024/02/13 04:37:14;;;;;;;8.13;3.42;;;;;;;5.25;100.00;100461.38;5097466;28;20028;-69
2024/02/13 04:39:40;;;;;;;6.63;3.20;;;;;;;5.25;100.00;100469.63;5063018;28;20024;-70
2024/02/13 04:42:05;;;;;;;5.20;2.78;;;;;;;5.26;100.00;100476.78;5049849;28;20041;-70
2024/02/13 04:44:31;;;;;;;6.57;2.88;;;;;;;5.31;100.00;100468.56;5068093;28;20107;-70
2024/02/13 04:46:56;;;;;;;8.02;2.92;;;;;;;5.26;100.00;100474.03;5090655;28;20052;-70
2024/02/13 04:49:22;;;;;;;8.43;3.22;;;;;;;5.30;100.00;100473.25;5079954;28;20043;-70
2024/02/13 04:51:48;;;;;;;8.88;2.75;;;;;;;5.28;100.00;100478.19;5068598;28;20024;-70
2024/02/13 04:54:13;;;;;;;6.00;3.30;;;;;;;5.29;100.00;100473.50;5096057;28;20024;-70
2024/02/13 04:56:40;;;;;;;7.47;2.80;;;;;;;5.31;100.00;100479.59;5066201;28;20643;-70
2024/02/13 04:59:07;;;;;;;5.97;2.97;;;;;;;5.30;100.00;100473.25;5062682;28;20048;-69
2024/02/13 05:01:39;;;;;;;8.40;3.20;;;;;;;5.30;100.00;100473.25;5097399;28;20111;-69
2024/02/13 05:09:23;;;;;;;7.10;2.92;;;;;;;5.35;100.00;100480.75;5078940;28;20031;-69
2024/02/13 05:11:49;;;;;;;5.40;3.17;;;;;;;5.36;100.00;100471.38;5053927;28;20432;-70
2024/02/13 05:14:14;;;;;;;7.95;3.30;;;;;;;5.39;100.00;100470.84;5079133;28;20028;-70
2024/02/13 05:16:41;;;;;;;8.63;3.35;;;;;;;5.40;100.00;100469.75;5070534;28;20035;-70
2024/02/13 05:19:07;;;;;;;5.72;3.03;;;;;;;5.42;100.00;100469.50;5065634;28;20036;-70
2024/02/13 05:21:35;;;;;;;8.35;3.65;;;;;;;5.43;100.00;100480.25;5084850;28;20067;-70
2024/02/13 05:24:03;;;;;;;7.63;3.55;;;;;;;5.43;100.00;100476.66;5019929;28;20024;-70
2024/02/13 05:26:28;;;;;;;10.02;4.10;;;;;;;5.46;100.00;100481.66;5062245;28;20052;-70
2024/02/13 05:28:56;;;;;;;9.75;3.67;;;;;;;5.47;100.00;100477.84;5057444;28;20032;-70
2024/02/13 05:31:22;;;;;;;7.43;3.90;;;;;;;5.49;100.00;100473.72;5081032;28;20028;-70
2024/02/13 05:33:49;;;;;;;8.57;3.45;;;;;;;5.50;100.00;100471.78;5085412;28;20147;-69
2024/02/13 05:36:16;;;;;;;8.25;3.97;;;;;;;5.52;100.00;100464.94;5085311;28;20085;-70
2024/02/13 05:38:45;;;;;;;6.28;3.97;;;;;;;5.54;100.00;100478.44;5076756;28;20108;-70
2024/02/13 05:41:11;;;;;;;5.93;3.85;;;;;;;5.56;100.00;100473.50;5044752;28;20473;-69
2024/02/13 05:43:38;;;;;;;10.52;4.22;;;;;;;5.56;100.00;100476.25;5084369;28;20071;-70
2024/02/13 05:46:04;;;;;;;7.75;3.85;;;;;;;5.58;100.00;100474.06;5072619;28;20039;-70
2024/02/13 05:48:29;;;;;;;9.98;4.60;;;;;;;5.58;100.00;100463.88;5069266;28;20464;-69
2024/02/13 05:50:55;;;;;;;10.85;4.05;;;;;;;5.59;100.00;100462.78;5061349;28;20477;-70
2024/02/13 05:53:21;;;;;;;5.53;3.40;;;;;;;5.62;100.00;100450.41;5083226;28;20039;-70
2024/02/13 05:55:48;;;;;;;8.02;4.18;;;;;;;5.63;100.00;100445.72;5053085;28;20020;-70
2024/02/13 05:58:13;;;;;;;9.13;4.10;;;;;;;5.64;100.00;100450.97;5085618;28;20030;-70
2024/02/13 06:00:40;;;;;;;7.50;4.40;;;;;;;5.65;100.00;100443.53;5078188;28;20422;-70
2024/02/13 06:03:08;;;;;;;10.23;4.40;;;;;;;5.67;100.00;100441.34;5092942;28;20509;-70
2024/02/13 06:05:35;;;;;;;8.25;4.40;;;;;;;5.69;100.00;100450.19;5059726;28;20074;-70
2024/02/13 06:08:00;;;;;;;8.52;4.25;;;;;;;5.72;100.00;100447.75;5058580;28;20112;-70
2024/02/13 06:10:26;;;;;;;10.35;4.07;;;;;;;5.72;100.00;100441.41;5081631;28;20028;-70
2024/02/13 06:12:52;;;;;;;10.80;3.75;;;;;;;5.74;100.00;100450.22;5048881;28;20059;-70
2024/02/13 06:15:17;;;;;;;6.03;3.90;;;;;;;5.77;100.00;100458.81;5036867;28;20032;-70
2024/02/13 06:17:43;;;;;;;8.50;4.97;;;;;;;5.77;100.00;100466.25;5029487;28;20023;-70
2024/02/13 06:20:12;;;;;;;8.40;4.55;;;;;;;5.77;100.00;100466.25;5067770;28;20039;-70
2024/02/13 06:22:38;;;;;;;6.75;4.40;;;;;;;5.81;100.00;100464.63;5056096;28;20118;-70
2024/02/13 06:25:04;;;;;;;8.43;4.63;;;;;;;5.83;100.00;100462.44;5061025;28;20111;-70
2024/02/13 06:27:33;;;;;;;7.75;4.28;;;;;;;5.85;100.00;100467.66;5066428;28;20059;-70
2024/02/13 06:29:59;;;;;;;10.57;4.82;;;;;;;5.86;100.00;100461.91;5051722;28;20035;-70
2024/02/13 06:32:25;;;;;;;14.18;4.25;;;;;;;5.87;100.00;100469.06;5064277;28;20025;-70
2024/02/13 06:34:53;;;;;;;8.38;4.00;;;;;;;5.89;100.00;100469.63;5044524;28;20050;-69
2024/02/13 06:37:19;;;;;;;9.07;3.88;;;;;;;5.91;100.00;100472.16;5082295;28;20165;-70
2024/02/13 06:39:45;;;;;;;10.07;4.90;;;;;;;5.91;100.00;100467.47;5043957;28;20032;-70
2024/02/13 06:42:11;;;;;;;9.65;4.35;;;;;;;5.93;100.00;100467.19;5065088;28;20559;-70
2024/02/13 06:44:37;;;;;;;9.98;4.85;;;;;;;5.93;100.00;100470.78;5092710;28;20111;-70
2024/02/13 06:47:06;;;;;;;5.90;3.90;;;;;;;5.95;100.00;100468.59;5070677;28;20044;-70
2024/02/13 06:49:33;;;;;;;7.65;4.50;;;;;;;5.97;100.00;100479.38;5059312;28;20035;-70
2024/02/13 06:51:58;;;;;;;9.30;3.65;;;;;;;5.95;100.00;100484.31;5080513;28;20412;-70
2024/02/13 06:54:24;;;;;;;9.00;4.75;;;;;;;5.99;100.00;100478.03;5035023;28;20047;-70
2024/02/13 06:56:50;;;;;;;6.28;3.90;;;;;;;5.99;100.00;100480.78;5046844;28;20040;-70
2024/02/13 06:59:16;;;;;;;9.30;4.13;;;;;;;6.00;100.00;100482.44;5041667;28;20124;-70
2024/02/13 07:01:41;;;;;;;8.63;4.20;;;;;;;5.99;100.00;100483.53;5043068;28;20021;-70
2024/02/13 07:04:07;;;;;;;6.78;3.83;;;;;;;6.01;100.00;100492.34;5079891;28;20031;-70
2024/02/13 07:06:32;;;;;;;11.88;4.35;;;;;;;6.03;100.00;100495.69;5047815;28;20032;-70
2024/02/13 07:08:58;;;;;;;10.95;4.38;;;;;;;6.05;100.00;100495.44;5043679;28;20038;-70
2024/02/13 07:11:23;;;;;;;8.82;3.72;;;;;;;6.04;100.00;100494.63;5062899;28;20029;-70
2024/02/13 07:13:48;;;;;;;9.32;4.10;;;;;;;6.06;100.00;100499.84;5059838;28;20519;-70
2024/02/13 07:16:14;;;;;;;7.85;4.00;;;;;;;6.05;100.00;100503.72;5046409;28;20036;-70
2024/02/13 07:18:41;;;;;;;9.07;4.20;;;;;;;6.00;100.00;100498.97;5026633;28;20612;-70
2024/02/13 07:21:07;;;;;;;10.98;4.60;;;;;;;6.07;100.00;100511.69;5090774;28;20035;-70
2024/02/13 07:23:36;;;;;;;7.82;3.80;;;;;;;6.06;100.00;100515.56;5068330;28;20039;-70
2024/02/13 07:26:01;;;;;;;9.35;3.97;;;;;;;6.04;100.00;100510.31;5046913;28;20028;-70
2024/02/13 07:28:30;;;;;;;6.95;3.92;;;;;;;6.04;100.00;100516.66;5059540;28;20453;-70
2024/02/13 07:30:56;;;;;;;9.65;3.80;;;;;;;6.06;100.00;100526.59;5080412;28;20032;-70
2024/02/13 07:33:21;;;;;;;9.35;3.90;;;;;;;6.04;100.00;100513.91;5060575;28;20708;-70
2024/02/13 07:35:48;;;;;;;8.23;4.20;;;;;;;6.07;100.00;100519.97;5059285;28;20037;-70
2024/02/13 07:38:13;;;;;;;9.30;4.20;;;;;;;6.07;100.00;100525.50;5049401;28;20031;-70
2024/02/13 07:40:38;;;;;;;8.35;3.78;;;;;;;6.07;100.00;100519.97;5072579;28;20028;-70
2024/02/13 07:43:06;;;;;;;10.38;3.72;;;;;;;6.07;100.00;100526.31;5085633;28;20082;-70
2024/02/13 07:45:31;;;;;;;7.90;3.92;;;;;;;6.05;100.00;100523.00;5058759;28;20028;-70
2024/02/13 07:47:59;;;;;;;12.55;4.28;;;;;;;6.08;100.00;100516.97;5063116;28;20036;-70
2024/02/13 07:50:26;;;;;;;6.78;4.18;;;;;;;6.09;100.00;100517.78;5045843;28;20028;-70
2024/02/13 07:52:51;;;;;;;9.68;3.88;;;;;;;6.10;100.00;100516.69;5077112;28;20040;-70
2024/02/13 07:55:17;;;;;;;10.63;3.95;;;;;;;6.13;100.00;100527.19;5071038;28;20043;-70
2024/02/13 07:57:42;;;;;;;10.30;3.65;;;;;;;6.13;100.00;100525.28;5031848;28;20427;-70
2024/02/13 08:00:08;;;;;;;7.03;3.20;;;;;;;6.16;100.00;100523.94;5090378;28;20028;-70
2024/02/13 08:02:34;;;;;;;9.95;3.40;;;;;;;6.17;100.00;100526.41;5080290;28;20032;-70
2024/02/13 08:04:59;;;;;;;5.47;3.20;;;;;;;6.19;100.00;100534.44;5045307;28;20539;-70
2024/02/13 08:07:27;;;;;;;8.95;3.35;;;;;;;6.22;100.00;100534.72;5063556;28;20025;-70
2024/02/13 08:09:53;;;;;;;6.65;3.30;;;;;;;6.25;100.00;100544.38;5059804;28;20039;-70
2024/02/13 08:12:19;;;;;;;8.80;3.35;;;;;;;6.25;100.00;100533.34;5048008;28;20034;-70
2024/02/13 08:14:44;;;;;;;12.57;3.70;;;;;;;6.29;100.00;100539.16;5075588;28;20028;-70
2024/02/13 08:17:10;;;;;;;6.03;2.85;;;;;;;6.31;100.00;100537.81;5079850;28;20164;-70
2024/02/13 08:19:40;;;;;;;6.93;2.97;;;;;;;6.34;100.00;100536.44;5054441;28;20039;-70
2024/02/13 08:22:06;;;;;;;9.02;2.83;;;;;;;6.36;100.00;100535.09;5105359;28;20104;-70
2024/02/13 08:24:31;;;;;;;8.02;2.50;;;;;;;6.38;100.00;100548.59;5069132;28;20047;-70
2024/02/13 08:26:57;;;;;;;7.43;3.00;;;;;;;6.40;100.00;100540.91;5035670;28;20032;-70
2024/02/13 08:29:22;;;;;;;3.88;2.40;;;;;;;6.41;100.00;100548.94;5088497;28;20504;-70
2024/02/13 08:31:50;;;;;;;4.47;2.35;;;;;;;6.45;100.00;100535.41;5077201;28;20492;-70
2024/02/13 08:34:17;;;;;;;6.95;2.60;;;;;;;6.48;100.00;100538.47;5090889;28;20101;-70
2024/02/13 08:36:43;;;;;;;7.60;2.50;;;;;;;6.53;100.00;100540.44;5079774;28;20073;-70
2024/02/13 08:39:10;;;;;;;4.25;2.38;;;;;;;6.54;100.00;100536.56;5063131;28;20122;-70
2024/02/13 08:41:35;;;;;;;4.53;1.92;;;;;;;6.56;100.00;100533.56;5065285;28;20038;-70
2024/02/13 08:44:00;;;;;;;5.50;2.60;;;;;;;6.61;100.00;100537.19;5040603;28;20024;-70
2024/02/13 08:46:26;;;;;;;10.15;2.25;;;;;;;6.65;100.00;100532.78;5089326;28;20051;-70
2024/02/13 08:48:52;;;;;;;7.40;2.53;;;;;;;6.71;100.00;100541.91;5084084;28;20076;-70
2024/02/13 08:51:19;;;;;;;7.00;2.33;;;;;;;6.74;100.00;100535.03;5051562;28;20024;-70
2024/02/13 08:53:46;;;;;;;5.65;2.30;;;;;;;6.79;100.00;100538.66;5071868;28;20103;-70
2024/02/13 08:56:14;;;;;;;6.72;2.30;;;;;;;6.85;100.00;100537.59;5062875;28;20035;-70
2024/02/13 08:58:40;;;;;;;4.97;2.20;;;;;;;6.90;100.00;100543.13;5071273;28;20055;-70
2024/02/13 09:01:06;;;;;;;8.88;2.67;;;;;;;6.93;100.00;100536.22;5064300;28;20036;-70
2024/02/13 09:03:31;;;;;;;6.78;2.60;;;;;;;6.99;100.00;100542.59;5049227;28;20039;-70
2024/02/13 09:05:58;;;;;;;8.88;2.40;;;;;;;7.01;100.00;100537.66;5087524;28;20028;-70
2024/02/13 09:08:24;;;;;;;10.50;2.65;;;;;;;7.06;100.00;100524.69;5079331;28;20036;-70
2024/02/13 09:10:50;;;;;;;7.85;2.95;;;;;;;7.11;100.00;100523.91;5059199;28;20063;-70
2024/02/13 09:13:16;;;;;;;7.90;2.45;;;;;;;7.16;100.00;100521.16;5043094;28;20042;-70
2024/02/13 09:15:42;;;;;;;6.95;2.83;;;;;;;7.23;100.00;100516.19;5067504;28;20657;-70
2024/02/13 09:18:08;;;;;;;4.40;2.70;;;;;;;7.29;100.00;100517.03;5058824;28;20096;-70
2024/02/13 09:20:35;;;;;;;6.93;2.53;;;;;;;7.36;100.00;100514.84;5082483;28;20431;-70
2024/02/13 09:23:00;;;;;;;9.50;2.70;;;;;;;7.47;100.00;100524.81;5090576;28;20162;-70
2024/02/13 09:25:26;;;;;;;8.00;2.83;;;;;;;7.51;100.00;100519.56;5072635;28;20044;-70
2024/02/13 09:27:52;;;;;;;6.32;2.45;;;;;;;7.58;100.00;100517.38;5081000;28;20039;-70
2024/02/13 09:30:18;;;;;;;7.47;2.50;;;;;;;7.64;100.00;100513.53;5067350;28;20370;-70
2024/02/13 09:32:46;;;;;;;7.75;2.08;;;;;;;7.68;100.00;100511.84;5070406;28;20031;-70
2024/02/13 09:35:11;;;;;;;5.93;2.83;;;;;;;7.73;100.00;100520.16;5081295;28;20115;-70
2024/02/13 09:37:39;;;;;;;5.25;2.60;;;;;;;7.80;100.00;100508.81;5061219;28;20035;-70
2024/02/13 09:40:15;;;;;;;8.98;2.90;;;;;;;7.87;100.00;100503.84;5019031;28;20031;-70
2024/02/13 09:42:44;;;;;;;7.53;2.60;;;;;;;7.95;100.00;100511.59;5055641;28;20033;-70
2024/02/13 09:45:10;;;;;;;6.82;2.58;;;;;;;8.00;100.00;100496.94;5031027;28;20110;-70
2024/02/13 09:47:39;;;;;;;5.90;2.40;;;;;;;8.06;100.00;100509.66;5078439;28;20043;-70
2024/02/13 09:50:07;;;;;;;9.95;2.72;;;;;;;8.10;100.00;100498.88;5060480;28;20024;-70
2024/02/13 09:52:33;;;;;;;7.85;2.78;;;;;;;8.14;100.00;100498.03;5061090;28;20472;-70
2024/02/13 09:54:58;;;;;;;6.07;2.47;;;;;;;8.17;100.00;100493.91;5065930;28;20051;-70
2024/02/13 09:57:24;;;;;;;7.57;2.65;;;;;;;8.19;100.00;100498.03;5049242;28;20025;-70
2024/02/13 09:59:50;;;;;;;10.63;2.85;;;;;;;8.22;100.00;100505.78;5046552;28;20043;-70
2024/02/13 10:02:15;;;;;;;8.07;3.10;;;;;;;8.24;100.00;100497.19;5086586;28;20028;-70
2024/02/13 10:04:41;;;;;;;8.05;3.15;;;;;;;8.26;100.00;100506.88;5068571;28;20043;-70
2024/02/13 10:07:06;;;;;;;4.80;3.20;;;;;;;8.31;100.00;100502.44;5049082;28;20033;-70
2024/02/13 10:09:32;;;;;;;8.93;4.00;;;;;;;8.34;100.00;100494.41;5049453;28;20036;-70
2024/02/13 10:12:09;;;;;;;8.10;3.10;;;;;;;8.37;100.00;100496.63;5061375;28;20024;-70
2024/02/13 10:14:34;;;;;;;15.05;3.85;;;;;;;8.40;100.00;100482.25;5059410;28;20047;-70
2024/02/13 10:17:08;;;;;;;10.60;3.25;;;;;;;8.42;100.00;100493.06;5061069;28;20412;-70
2024/02/13 10:19:34;;;;;;;7.68;3.10;;;;;;;8.44;100.00;100486.13;5065839;28;20087;-70
2024/02/13 10:22:06;;;;;;;10.90;3.25;;;;;;;8.53;100.00;100494.69;5047353;28;20399;-70
2024/02/13 10:24:31;;;;;;;11.10;3.08;;;;;;;8.57;100.00;100493.00;5064396;28;20047;-70
2024/02/13 10:26:59;;;;;;;8.60;3.08;;;;;;;8.60;100.00;100489.66;5079343;28;20032;-70
2024/02/13 10:29:25;;;;;;;11.48;3.78;;;;;;;8.67;100.00;100492.97;5084451;28;20045;-70
2024/02/13 10:31:50;;;;;;;8.40;3.10;;;;;;;8.72;100.00;100486.59;5079472;28;20032;-70
2024/02/13 10:34:16;;;;;;;8.38;3.17;;;;;;;8.78;100.00;100496.53;5064044;28;20032;-70
2024/02/13 10:36:44;;;;;;;8.20;3.42;;;;;;;8.87;100.00;100494.03;5040462;28;20035;-70
2024/02/13 10:39:12;;;;;;;8.55;3.17;;;;;;;8.87;100.00;100499.56;5077812;28;20028;-70
2024/02/13 10:41:42;;;;;;;12.25;3.45;;;;;;;8.93;100.00;100513.09;5071326;28;20399;-70
2024/02/13 10:44:11;;;;;;;11.88;3.40;;;;;;;8.99;100.00;100518.63;5029437;28;20024;-70
2024/02/13 10:46:40;;;;;;;8.13;3.70;;;;;;;9.03;100.00;100514.19;5056479;28;20028;-70
2024/02/13 10:49:25;;;;;;;6.53;3.40;;;;;;;9.12;100.00;100501.38;5080182;28;20736;-70
2024/02/13 10:51:50;;;;;;;6.68;2.80;;;;;;;9.14;100.00;100501.94;5058953;28;20059;-70
2024/02/13 10:54:17;;;;;;;11.38;3.05;;;;;;;9.18;100.00;100495.53;5044958;28;20450;-70
2024/02/13 10:56:43;;;;;;;9.18;3.00;;;;;;;9.21;100.00;100491.34;5071653;28;20099;-70
2024/02/13 10:59:09;;;;;;;9.95;3.60;;;;;;;9.26;100.00;100490.50;5056497;28;20032;-70
2024/02/13 11:01:41;;;;;;;9.18;3.67;;;;;;;9.29;100.00;100484.41;5071144;28;20484;-70
2024/02/13 11:04:07;;;;;;;13.95;3.70;;;;;;;9.35;100.00;100486.84;5065320;28;20077;-70
2024/02/13 11:06:32;;;;;;;12.55;3.60;;;;;;;9.44;100.00;100487.06;5070114;28;20036;-70
2024/02/13 11:08:58;;;;;;;9.30;3.55;;;;;;;9.47;100.00;100480.97;5064405;28;20027;-70
2024/02/13 11:11:24;;;;;;;12.82;4.20;;;;;;;9.53;100.00;100476.22;5067033;28;20071;-70
2024/02/13 11:13:50;;;;;;;10.10;3.50;;;;;;;9.60;100.00;100476.69;5081673;28;20111;-70
2024/02/13 11:16:16;;;;;;;9.07;3.33;;;;;;;9.67;100.00;100473.59;5076144;28;20036;-70
2024/02/13 11:18:48;;;;;;;9.15;3.17;;;;;;;9.73;100.00;100472.47;5072844;28;20032;-70
2024/02/13 11:21:26;;;;;;;8.88;3.33;;;;;;;9.83;100.00;100477.91;5060645;28;20028;-70
2024/02/13 11:23:58;;;;;;;8.48;3.47;;;;;;;9.88;100.00;100486.19;5079314;28;20032;-70
2024/02/13 11:26:25;;;;;;;8.23;2.77;;;;;;;9.97;100.00;100469.75;5060411;28;20496;-70